createdAt,value
2018-05-23T00:00:16.125Z,9.90
2018-05-23T00:02:43.748Z,9.70
2018-05-23T00:05:11.427Z,14.50
2018-05-23T00:07:39.074Z,9.30
2018-05-23T00:10:07.704Z,9.70
2018-05-23T00:12:35.312Z,16.23
2018-05-23T00:15:02.928Z,9.77
2018-05-23T00:17:30.693Z,18.60
2018-05-23T00:19:58.387Z,11.10
2018-05-23T00:22:26.073Z,13.17
2018-05-23T00:24:53.825Z,10.33
2018-05-23T00:27:21.601Z,9.60
2018-05-23T00:29:49.263Z,12.90
2018-05-23T00:32:16.957Z,14.53
2018-05-23T00:34:44.569Z,13.13
2018-05-23T00:37:15.013Z,11.43
2018-05-23T00:39:43.620Z,16.67
2018-05-23T00:42:11.334Z,14.93
2018-05-23T00:44:38.956Z,10.40
2018-05-23T00:47:06.556Z,17.70
2018-05-23T00:49:34.212Z,8.93
2018-05-23T00:52:01.874Z,14.43
2018-05-23T00:54:29.441Z,15.13
2018-05-23T00:56:57.404Z,9.13
2018-05-23T00:59:25.088Z,9.03
2018-05-23T01:01:52.682Z,12.13
2018-05-23T01:04:20.318Z,13.20
2018-05-23T01:06:47.992Z,8.53
2018-05-23T01:09:15.751Z,12.53
2018-05-23T01:11:43.308Z,8.90
2018-05-23T01:14:10.937Z,12.10
2018-05-23T01:16:38.532Z,18.00
2018-05-23T01:19:07.034Z,12.47
2018-05-23T01:21:34.673Z,11.00
2018-05-23T01:24:02.304Z,17.13
2018-05-23T01:26:30.985Z,9.87
2018-05-23T01:28:59.349Z,10.17
2018-05-23T01:31:26.925Z,18.90
2018-05-23T01:33:54.761Z,13.60
2018-05-23T01:36:22.362Z,12.60
2018-05-23T01:38:49.956Z,13.10
2018-05-23T01:41:17.837Z,20.20
2018-05-23T01:43:45.469Z,15.00
2018-05-23T01:46:13.162Z,17.70
2018-05-23T01:48:52.682Z,23.23
2018-05-23T01:51:20.342Z,15.80
2018-05-23T01:53:47.901Z,12.37
2018-05-23T01:56:15.572Z,21.30
2018-05-23T01:58:43.980Z,13.50
2018-05-23T02:01:11.649Z,16.80
2018-05-23T02:03:39.253Z,12.83
2018-05-23T02:06:06.927Z,13.10
2018-05-23T02:08:34.580Z,17.97
2018-05-23T02:11:02.212Z,13.07
2018-05-23T02:13:29.880Z,11.30
2018-05-23T02:15:57.602Z,18.30
2018-05-23T02:18:25.249Z,13.00
2018-05-23T02:20:52.829Z,13.00
2018-05-23T02:23:22.024Z,12.27
2018-05-23T02:25:49.738Z,15.43
2018-05-23T02:28:17.348Z,12.87
2018-05-23T02:30:45.812Z,13.63
2018-05-23T02:33:13.418Z,16.00
2018-05-23T02:35:41.067Z,21.00
2018-05-23T02:38:09.022Z,16.13
2018-05-23T02:40:36.829Z,13.93
2018-05-23T02:43:04.418Z,18.83
2018-05-23T02:45:31.981Z,13.90
2018-05-23T02:48:00.456Z,19.00
2018-05-23T02:50:28.147Z,17.50
2018-05-23T02:52:55.809Z,15.17
2018-05-23T02:55:23.460Z,22.47
2018-05-23T02:57:52.026Z,16.10
2018-05-23T03:00:19.642Z,16.53
2018-05-23T03:02:47.268Z,10.33
2018-05-23T03:05:14.998Z,16.10
2018-05-23T03:07:42.573Z,12.23
2018-05-23T03:10:10.206Z,16.93
2018-05-23T03:12:37.865Z,15.30
2018-05-23T03:15:08.372Z,11.50
2018-05-23T03:17:35.993Z,13.57
2018-05-23T03:20:03.690Z,12.47
2018-05-23T03:22:31.281Z,12.30
2018-05-23T03:24:59.131Z,18.47
2018-05-23T03:27:26.748Z,14.23
2018-05-23T03:29:54.489Z,14.63
2018-05-23T03:32:22.190Z,12.60
2018-05-23T03:34:50.691Z,15.70
2018-05-23T03:37:18.288Z,18.60
2018-05-23T03:39:45.877Z,12.80
2018-05-23T03:42:13.563Z,12.33
2018-05-23T03:44:41.240Z,12.57
2018-05-23T03:47:08.813Z,14.10
2018-05-23T03:49:36.457Z,12.00
2018-05-23T03:52:04.152Z,13.43
2018-05-23T03:54:31.885Z,14.83
2018-05-23T03:56:59.484Z,17.80
2018-05-23T03:59:38.820Z,12.10
2018-05-23T04:02:18.175Z,13.53
2018-05-23T04:04:58.396Z,12.07
2018-05-23T04:07:44.688Z,14.73
2018-05-23T04:10:12.442Z,14.20
2018-05-23T04:12:40.086Z,22.73
2018-05-23T04:15:07.834Z,21.57
2018-05-23T04:17:35.463Z,14.63
2018-05-23T04:20:03.142Z,10.27
2018-05-23T04:22:30.776Z,8.07
2018-05-23T04:24:58.399Z,7.37
2018-05-23T04:27:26.060Z,9.70
2018-05-23T04:29:53.715Z,21.67
2018-05-23T04:32:21.295Z,6.57
2018-05-23T04:34:48.864Z,5.47
2018-05-23T04:37:16.428Z,4.27
2018-05-23T04:39:44.007Z,7.50
2018-05-23T04:42:11.572Z,3.80
2018-05-23T04:44:39.266Z,9.03
2018-05-23T04:47:06.832Z,6.00
2018-05-23T04:49:34.497Z,7.80
2018-05-23T04:52:02.069Z,4.13
2018-05-23T04:54:29.697Z,7.00
2018-05-23T04:56:57.288Z,3.53
2018-05-23T04:59:25.082Z,4.27
2018-05-23T05:01:52.775Z,8.10
2018-05-23T05:04:20.458Z,3.20
2018-05-23T05:06:48.097Z,3.97
2018-05-23T05:09:16.495Z,4.97
2018-05-23T05:11:44.077Z,6.83
2018-05-23T05:14:11.710Z,6.50
2018-05-23T05:16:39.293Z,6.20
2018-05-23T05:19:06.916Z,5.43
2018-05-23T05:21:34.508Z,5.67
2018-05-23T05:24:02.153Z,5.20
2018-05-23T05:26:29.742Z,3.33
2018-05-23T05:28:57.317Z,8.70
2018-05-23T05:31:25.026Z,5.97
2018-05-23T05:33:52.680Z,3.10
2018-05-23T05:36:20.356Z,4.33
2018-05-23T05:38:48.236Z,3.37
2018-05-23T05:41:15.817Z,5.70
2018-05-23T05:43:43.546Z,4.50
2018-05-23T05:46:11.269Z,2.90
2018-05-23T05:48:38.849Z,4.50
2018-05-23T05:51:06.453Z,4.00
2018-05-23T05:53:34.065Z,2.90
2018-05-23T05:56:01.714Z,4.07
2018-05-23T05:58:29.340Z,3.00
2018-05-23T06:00:56.978Z,4.17
2018-05-23T06:03:24.754Z,3.90
2018-05-23T06:05:52.677Z,5.40
2018-05-23T06:08:20.349Z,3.80
2018-05-23T06:10:47.974Z,5.00
2018-05-23T06:13:15.594Z,6.30
2018-05-23T06:15:43.280Z,2.60
2018-05-23T06:18:10.950Z,4.20
2018-05-23T06:20:38.540Z,3.80
2018-05-23T06:23:06.245Z,3.50
2018-05-23T06:25:34.029Z,3.63
2018-05-23T06:28:01.677Z,7.23
2018-05-23T06:30:29.295Z,3.33
2018-05-23T06:32:56.877Z,3.03
2018-05-23T06:35:24.476Z,8.90
2018-05-23T06:37:52.194Z,3.93
2018-05-23T06:40:19.876Z,3.77
2018-05-23T06:42:47.508Z,4.20
2018-05-23T06:45:15.160Z,3.37
2018-05-23T06:47:42.809Z,2.80
2018-05-23T06:50:10.564Z,4.67
2018-05-23T06:52:38.287Z,5.23
2018-05-23T06:55:05.851Z,4.97
2018-05-23T06:57:33.418Z,3.47
2018-05-23T07:00:01.042Z,3.13
2018-05-23T07:02:28.694Z,3.10
2018-05-23T07:04:56.371Z,4.60
2018-05-23T07:07:23.956Z,3.47
2018-05-23T07:09:51.612Z,4.40
2018-05-23T07:12:19.192Z,2.40
2018-05-23T07:14:46.827Z,4.63
2018-05-23T07:17:14.404Z,5.20
2018-05-23T07:19:41.985Z,2.90
2018-05-23T07:22:09.735Z,4.60
2018-05-23T07:24:37.377Z,4.60
2018-05-23T07:27:05.022Z,3.27
2018-05-23T07:29:32.606Z,6.83
2018-05-23T07:32:00.205Z,2.77
2018-05-23T07:34:27.802Z,5.20
2018-05-23T07:36:55.433Z,5.30
2018-05-23T07:39:23.096Z,3.00
2018-05-23T07:41:50.664Z,6.20
2018-05-23T07:44:18.280Z,2.60
2018-05-23T07:46:45.985Z,3.20
2018-05-23T07:49:13.596Z,2.83
2018-05-23T07:51:41.228Z,4.73
2018-05-23T07:54:08.877Z,4.03
2018-05-23T07:56:36.710Z,3.63
2018-05-23T07:59:04.369Z,4.33
2018-05-23T08:01:31.960Z,2.73
2018-05-23T08:03:59.593Z,4.10
2018-05-23T08:06:27.256Z,4.43
2018-05-23T08:08:54.850Z,2.60
2018-05-23T08:11:22.505Z,3.13
2018-05-23T08:13:50.200Z,4.03
2018-05-23T08:16:17.805Z,2.70
2018-05-23T08:18:45.400Z,2.10
2018-05-23T08:21:12.974Z,4.40
2018-05-23T08:23:40.579Z,1.60
2018-05-23T08:26:08.222Z,5.43
2018-05-23T08:28:35.866Z,3.13
2018-05-23T08:31:04.376Z,2.30
2018-05-23T08:33:32.099Z,1.40
2018-05-23T08:35:59.693Z,2.50
2018-05-23T08:38:27.296Z,1.80
2018-05-23T08:40:54.885Z,3.83
2018-05-23T08:43:22.529Z,2.57
2018-05-23T08:45:51.091Z,2.60
2018-05-23T08:48:18.808Z,2.97
2018-05-23T08:50:46.428Z,5.13
2018-05-23T08:53:14.161Z,2.20
2018-05-23T08:55:41.900Z,2.40
2018-05-23T08:58:09.537Z,1.60
2018-05-23T09:00:37.130Z,1.93
2018-05-23T09:03:05.042Z,2.47
2018-05-23T09:05:39.496Z,3.30
2018-05-23T09:08:07.167Z,1.57
2018-05-23T09:10:34.744Z,2.00
2018-05-23T09:13:02.424Z,1.67
2018-05-23T09:15:30.139Z,1.67
2018-05-23T09:17:58.050Z,3.17
2018-05-23T09:20:25.625Z,1.80
2018-05-23T09:22:53.349Z,3.87
2018-05-23T09:25:21.810Z,1.87
2018-05-23T09:27:50.225Z,1.40
2018-05-23T09:30:17.839Z,1.80
2018-05-23T09:32:45.432Z,3.27
2018-05-23T09:35:13.131Z,1.83
2018-05-23T09:37:41.106Z,2.60
2018-05-23T09:40:08.815Z,1.67
2018-05-23T09:42:36.444Z,2.50
2018-05-23T09:45:04.226Z,10.73
2018-05-23T09:47:31.911Z,1.57
2018-05-23T09:49:59.509Z,3.90
2018-05-23T09:52:27.172Z,2.50
2018-05-23T09:54:54.873Z,1.63
2018-05-23T09:57:22.489Z,1.43
2018-05-23T09:59:50.096Z,1.33
2018-05-23T10:02:17.796Z,3.17
2018-05-23T10:04:45.431Z,1.67
2018-05-23T10:07:13.012Z,1.67
2018-05-23T10:09:40.644Z,1.13
2018-05-23T10:12:08.286Z,4.50
2018-05-23T10:14:35.860Z,2.37
2018-05-23T10:17:03.566Z,6.33
2018-05-23T10:19:31.213Z,4.10
2018-05-23T10:21:58.854Z,2.30
2018-05-23T10:24:26.501Z,1.30
2018-05-23T10:26:54.180Z,2.70
2018-05-23T10:29:21.777Z,1.47
2018-05-23T10:31:49.445Z,2.93
2018-05-23T10:34:17.033Z,2.77
2018-05-23T10:36:44.742Z,1.77
2018-05-23T10:39:12.412Z,2.83
2018-05-23T10:41:39.968Z,2.13
2018-05-23T10:44:07.653Z,4.90
2018-05-23T10:46:35.247Z,2.25
2018-05-23T10:49:02.876Z,2.70
2018-05-23T10:51:30.445Z,3.73
2018-05-23T10:53:58.169Z,2.70
2018-05-23T10:56:25.845Z,3.97
2018-05-23T10:58:53.482Z,1.73
2018-05-23T11:01:21.120Z,2.97
2018-05-23T11:03:48.692Z,3.00
2018-05-23T11:06:16.350Z,2.17
2018-05-23T11:08:43.937Z,5.93
2018-05-23T11:11:11.648Z,1.62
2018-05-23T11:13:39.287Z,2.83
2018-05-23T11:16:06.888Z,4.82
2018-05-23T11:18:34.525Z,1.60
2018-05-23T11:21:02.092Z,4.47
2018-05-23T11:23:29.765Z,11.57
2018-05-23T11:25:57.341Z,1.92
2018-05-23T11:28:24.933Z,4.87
2018-05-23T11:30:52.525Z,6.53
2018-05-23T11:33:20.147Z,2.05
2018-05-23T11:35:47.853Z,4.78
2018-05-23T11:38:15.456Z,6.10
2018-05-23T11:40:43.850Z,3.87
2018-05-23T11:43:11.425Z,2.55
2018-05-23T11:45:39.097Z,4.20
2018-05-23T11:48:06.777Z,4.20
2018-05-23T11:50:34.405Z,2.25
2018-05-23T11:53:02.100Z,4.30
2018-05-23T11:55:29.685Z,5.43
2018-05-23T11:57:57.375Z,2.62
2018-05-23T12:00:25.138Z,4.30
2018-05-23T12:02:52.861Z,4.22
2018-05-23T12:05:20.484Z,2.95
2018-05-23T12:07:48.082Z,2.85
2018-05-23T12:10:15.746Z,5.75
2018-05-23T12:12:43.437Z,2.90
2018-05-23T12:15:11.028Z,11.48
2018-05-23T12:17:39.856Z,4.62
2018-05-23T12:20:07.537Z,2.00
2018-05-23T12:22:35.148Z,4.40
2018-05-23T12:25:02.729Z,6.03
2018-05-23T12:27:30.526Z,3.03
2018-05-23T12:29:58.116Z,2.53
2018-05-23T12:32:25.727Z,5.40
2018-05-23T12:34:53.360Z,7.97
2018-05-23T12:37:20.916Z,5.87
2018-05-23T12:39:48.474Z,4.07
2018-05-23T12:42:16.062Z,4.82
2018-05-23T12:44:43.710Z,9.15
2018-05-23T12:47:11.362Z,4.65
2018-05-23T12:49:39.016Z,1.98
2018-05-23T12:52:06.709Z,2.95
2018-05-23T12:54:34.325Z,1.95
2018-05-23T12:57:01.929Z,5.30
2018-05-23T12:59:29.608Z,2.30
2018-05-23T13:01:57.736Z,2.93
2018-05-23T13:04:25.324Z,3.03
2018-05-23T13:06:52.909Z,2.30
2018-05-23T13:09:20.554Z,4.30
2018-05-23T13:11:48.167Z,3.83
2018-05-23T13:14:15.764Z,2.75
2018-05-23T13:16:43.422Z,4.30
2018-05-23T13:19:11.002Z,2.55
2018-05-23T13:21:38.600Z,4.60
2018-05-23T13:24:06.169Z,2.22
2018-05-23T13:26:33.816Z,8.48
2018-05-23T13:29:01.402Z,6.15
2018-05-23T13:31:28.985Z,3.35
2018-05-23T13:33:56.649Z,9.90
2018-05-23T13:36:24.213Z,7.97
2018-05-23T13:38:51.851Z,4.30
2018-05-23T13:41:19.457Z,7.67
2018-05-23T13:43:47.178Z,5.57
2018-05-23T13:46:14.842Z,5.17
2018-05-23T13:48:42.497Z,9.30
2018-05-23T13:51:10.124Z,6.23
2018-05-23T13:53:37.689Z,5.03
2018-05-23T13:56:05.321Z,6.03
2018-05-23T13:58:32.937Z,3.27
2018-05-23T14:01:00.645Z,5.97
2018-05-23T14:03:28.204Z,4.93
2018-05-23T14:05:55.765Z,4.87
2018-05-23T14:08:23.328Z,4.30
2018-05-23T14:10:50.909Z,10.30
2018-05-23T14:13:18.605Z,5.63
2018-05-23T14:15:46.223Z,7.03
2018-05-23T14:18:13.852Z,4.50
2018-05-23T14:20:41.557Z,3.50
2018-05-23T14:23:12.360Z,2.37
2018-05-23T14:25:40.027Z,4.37
2018-05-23T14:28:07.704Z,2.90
2018-05-23T14:30:35.346Z,4.20
2018-05-23T14:33:02.917Z,9.43
2018-05-23T14:35:30.529Z,3.50
2018-05-23T14:37:58.175Z,8.23
2018-05-23T14:40:25.728Z,4.63
2018-05-23T14:42:53.292Z,4.53
2018-05-23T14:45:20.921Z,3.40
2018-05-23T14:47:48.568Z,6.37
2018-05-23T14:50:16.136Z,4.80
2018-05-23T14:52:43.784Z,3.20
2018-05-23T14:55:11.380Z,5.53
2018-05-23T14:57:39.745Z,5.10
2018-05-23T15:00:07.333Z,3.07
2018-05-23T15:02:35.016Z,6.60
2018-05-23T15:05:02.653Z,5.10
2018-05-23T15:07:30.312Z,14.23
2018-05-23T15:09:57.967Z,3.40
2018-05-23T15:12:25.839Z,6.80
2018-05-23T15:14:53.584Z,14.23
2018-05-23T15:17:21.175Z,5.63
2018-05-23T15:19:48.849Z,10.97
2018-05-23T15:22:18.312Z,15.67
2018-05-23T15:24:45.883Z,4.67
2018-05-23T15:27:13.550Z,11.97
2018-05-23T15:29:41.072Z,7.20
2018-05-23T15:32:08.641Z,13.20
2018-05-23T15:34:36.233Z,8.53
2018-05-23T15:37:03.787Z,7.87
2018-05-23T15:39:31.360Z,29.73
2018-05-23T15:41:58.939Z,9.03
2018-05-23T15:44:26.557Z,8.60
2018-05-23T15:46:54.226Z,9.97
2018-05-23T15:49:21.928Z,5.57
2018-05-23T15:51:49.536Z,4.27
2018-05-23T15:54:17.117Z,6.60
2018-05-23T15:56:44.760Z,5.87
2018-05-23T15:59:12.416Z,5.57
2018-05-23T16:01:39.980Z,15.90
2018-05-23T16:04:07.592Z,7.30
2018-05-23T16:06:35.156Z,4.77
2018-05-23T16:09:02.848Z,10.77
2018-05-23T16:11:30.417Z,5.50
2018-05-23T16:13:58.060Z,4.77
2018-05-23T16:16:25.845Z,21.77
2018-05-23T16:18:53.397Z,5.03
2018-05-23T16:21:20.964Z,10.20
2018-05-23T16:23:48.528Z,5.77
2018-05-23T16:26:16.082Z,9.40
2018-05-23T16:28:43.625Z,6.30
2018-05-23T16:31:11.232Z,15.10
2018-05-23T16:33:38.803Z,3.97
2018-05-23T16:36:06.384Z,6.87
2018-05-23T16:38:34.035Z,10.43
2018-05-23T16:41:01.596Z,3.17
2018-05-23T16:43:29.209Z,6.03
2018-05-23T16:45:56.829Z,17.90
2018-05-23T16:48:24.412Z,6.63
2018-05-23T16:50:52.019Z,14.47
2018-05-23T16:53:19.600Z,9.70
2018-05-23T16:55:47.164Z,8.30
2018-05-23T16:58:14.716Z,7.40
2018-05-23T17:00:42.305Z,10.50
2018-05-23T17:03:09.932Z,9.53
2018-05-23T17:05:37.512Z,9.87
2018-05-23T17:08:05.140Z,7.57
2018-05-23T17:10:32.797Z,7.90
2018-05-23T17:13:00.456Z,15.07
2018-05-23T17:15:28.028Z,9.83
2018-05-23T17:17:55.636Z,6.37
2018-05-23T17:20:30.141Z,14.80
2018-05-23T17:22:58.748Z,4.70
2018-05-23T17:25:26.348Z,10.40
2018-05-23T17:27:54.775Z,4.40
2018-05-23T17:30:22.452Z,9.73
2018-05-23T17:32:50.065Z,11.30
2018-05-23T17:35:17.649Z,8.40
2018-05-23T17:37:45.234Z,7.90
2018-05-23T17:40:12.923Z,7.33
2018-05-23T17:42:40.443Z,4.90
2018-05-23T17:45:08.106Z,5.53
2018-05-23T17:47:35.636Z,7.63
2018-05-23T17:50:03.206Z,15.20
2018-05-23T17:52:30.820Z,10.20
2018-05-23T17:54:58.403Z,12.40
2018-05-23T17:57:26.046Z,6.00
2018-05-23T17:59:53.610Z,6.70
2018-05-23T18:02:21.256Z,9.43
2018-05-23T18:04:48.838Z,7.37
2018-05-23T18:07:16.506Z,11.13
2018-05-23T18:09:44.092Z,6.57
2018-05-23T18:12:11.765Z,7.00
2018-05-23T18:14:39.352Z,11.07
2018-05-23T18:17:06.936Z,4.30
2018-05-23T18:19:34.528Z,13.77
2018-05-23T18:22:02.153Z,4.40
2018-05-23T18:24:29.777Z,6.20
2018-05-23T18:26:57.444Z,3.70
2018-05-23T18:29:25.164Z,6.90
2018-05-23T18:31:52.785Z,4.97
2018-05-23T18:34:20.377Z,8.67
2018-05-23T18:36:48.220Z,8.30
2018-05-23T18:39:15.841Z,6.43
2018-05-23T18:41:43.521Z,5.40
2018-05-23T18:44:11.157Z,6.20
2018-05-23T18:46:39.476Z,7.43
2018-05-23T18:49:07.124Z,9.57
2018-05-23T18:51:34.786Z,10.23
2018-05-23T18:54:02.379Z,9.63
2018-05-23T18:56:30.004Z,6.70
2018-05-23T18:58:57.600Z,11.07
2018-05-23T19:01:25.173Z,13.43
2018-05-23T19:03:52.738Z,7.50
2018-05-23T19:06:20.415Z,7.27
2018-05-23T19:08:48.007Z,12.53
2018-05-23T19:11:15.617Z,6.83
2018-05-23T19:13:43.229Z,11.73
2018-05-23T19:16:10.852Z,5.20
2018-05-23T19:18:38.543Z,7.53
2018-05-23T19:21:06.089Z,6.57
2018-05-23T19:23:33.723Z,6.80
2018-05-23T19:26:01.511Z,4.73
2018-05-23T19:28:29.093Z,6.20
2018-05-23T19:30:56.757Z,4.80
2018-05-23T19:33:24.343Z,6.87
2018-05-23T19:35:52.000Z,4.43
2018-05-23T19:38:19.611Z,6.53
2018-05-23T19:40:47.201Z,5.93
2018-05-23T19:43:14.857Z,8.17
2018-05-23T19:45:42.455Z,11.70
2018-05-23T19:48:10.077Z,7.90
2018-05-23T19:50:37.672Z,3.63
2018-05-23T19:53:05.349Z,6.23
2018-05-23T19:55:32.965Z,8.80
2018-05-23T19:58:00.584Z,4.00
2018-05-23T20:00:28.215Z,7.17
2018-05-23T20:02:55.834Z,5.53
2018-05-23T20:05:23.417Z,4.20
2018-05-23T20:07:51.124Z,3.40
2018-05-23T20:10:18.645Z,4.60
2018-05-23T20:12:46.267Z,6.93
2018-05-23T20:15:13.893Z,6.30
2018-05-23T20:17:41.604Z,4.43
2018-05-23T20:20:09.245Z,4.63
2018-05-23T20:22:36.916Z,5.30
2018-05-23T20:25:04.572Z,6.47
2018-05-23T20:27:32.186Z,6.30
2018-05-23T20:29:59.807Z,7.73
2018-05-23T20:32:27.471Z,10.93
2018-05-23T20:34:55.194Z,4.80
2018-05-23T20:37:22.824Z,5.20
2018-05-23T20:39:50.421Z,9.33
2018-05-23T20:42:18.076Z,4.60
2018-05-23T20:44:45.680Z,11.90
2018-05-23T20:47:13.361Z,11.43
2018-05-23T20:49:40.918Z,4.80
2018-05-23T20:52:09.419Z,3.77
2018-05-23T20:54:37.065Z,6.13
2018-05-23T20:57:04.798Z,4.40
2018-05-23T20:59:33.092Z,6.60
2018-05-23T21:02:00.715Z,5.63
2018-05-23T21:04:28.537Z,5.50
2018-05-23T21:06:56.184Z,6.90
2018-05-23T21:09:23.875Z,10.40
2018-05-23T21:11:52.244Z,6.93
2018-05-23T21:14:19.856Z,6.10
2018-05-23T21:16:47.611Z,9.07
2018-05-23T21:19:15.234Z,18.20
2018-05-23T21:21:42.948Z,4.97
2018-05-23T21:24:10.709Z,5.17
2018-05-23T21:26:38.321Z,4.47
2018-05-23T21:29:06.680Z,6.17
2018-05-23T21:31:34.417Z,5.07
2018-05-23T21:34:02.129Z,4.13
2018-05-23T21:36:29.844Z,4.30
2018-05-23T21:38:57.595Z,2.43
2018-05-23T21:41:25.535Z,5.17
2018-05-23T21:43:53.240Z,3.23
2018-05-23T21:46:20.896Z,4.30
2018-05-23T21:48:48.561Z,5.33
2018-05-23T21:51:16.161Z,5.30
2018-05-23T21:53:44.412Z,6.03
2018-05-23T21:56:12.073Z,6.60
2018-05-23T21:58:39.677Z,4.90
2018-05-23T22:01:07.370Z,4.40
2018-05-23T22:03:35.225Z,4.73
2018-05-23T22:06:03.284Z,4.67
2018-05-23T22:08:31.632Z,6.40
2018-05-23T22:10:59.228Z,7.70
2018-05-23T22:13:27.182Z,4.23
2018-05-23T22:15:55.469Z,8.20
2018-05-23T22:18:23.036Z,5.17
2018-05-23T22:20:50.699Z,3.77
2018-05-23T22:23:18.357Z,3.93
2018-05-23T22:25:46.042Z,10.10
2018-05-23T22:28:13.750Z,8.07
2018-05-23T22:30:41.652Z,6.23
2018-05-23T22:33:10.053Z,8.03
2018-05-23T22:35:37.696Z,3.63
2018-05-23T22:38:06.345Z,7.20
2018-05-23T22:40:33.908Z,9.13
2018-05-23T22:43:04.477Z,34.37
2018-05-23T22:45:32.423Z,19.17
2018-05-23T22:48:00.009Z,10.77
2018-05-23T22:50:28.565Z,11.60
2018-05-23T22:52:56.212Z,5.50
2018-05-23T22:55:23.803Z,7.10
2018-05-23T22:57:51.408Z,8.30
2018-05-23T23:00:23.982Z,4.33
2018-05-23T23:02:51.712Z,4.37
2018-05-23T23:05:19.425Z,8.53
2018-05-23T23:07:47.143Z,6.53
2018-05-23T23:10:14.829Z,8.70
2018-05-23T23:12:42.786Z,9.40
2018-05-23T23:15:10.530Z,4.20
2018-05-23T23:17:38.244Z,4.93
2018-05-23T23:20:06.076Z,4.20
2018-05-23T23:22:39.983Z,5.00
2018-05-23T23:25:07.552Z,6.70
2018-05-23T23:27:35.117Z,5.73
2018-05-23T23:30:02.749Z,5.67
2018-05-23T23:32:31.360Z,4.70
2018-05-23T23:34:59.772Z,4.00
2018-05-23T23:37:27.401Z,4.60
2018-05-23T23:39:55.071Z,3.20
2018-05-23T23:42:22.736Z,5.37
2018-05-23T23:44:50.453Z,6.23
2018-05-23T23:47:18.125Z,7.50
2018-05-23T23:49:46.548Z,4.10
2018-05-23T23:52:14.217Z,6.40
2018-05-23T23:54:42.151Z,5.77
2018-05-23T23:57:09.785Z,6.80
2018-05-23T23:59:38.361Z,5.57
